sensor_id;sensor_type;location;lat;lon;timestamp;temperature;humidity
17154;DHT22;8692;52.164;7.558;2023-04-25T00:00:07;7.60;99.90
17154;DHT22;8692;52.164;7.558;2023-04-25T00:02:38;7.60;99.90
17154;DHT22;8692;52.164;7.558;2023-04-25T00:05:08;7.70;99.90
17154;DHT22;8692;52.164;7.558;2023-04-25T00:07:38;7.70;99.90
17154;DHT22;8692;52.164;7.558;2023-04-25T00:10:12;7.70;99.90
17154;DHT22;8692;52.164;7.558;2023-04-25T00:12:41;7.60;99.90
17154;DHT22;8692;52.164;7.558;2023-04-25T00:15:10;7.70;99.90
17154;DHT22;8692;52.164;7.558;2023-04-25T00:17:40;7.60;99.90
17154;DHT22;8692;52.164;7.558;2023-04-25T00:20:10;7.60;99.90
17154;DHT22;8692;52.164;7.558;2023-04-25T00:22:42;7.60;99.90
17154;DHT22;8692;52.164;7.558;2023-04-25T00:25:12;7.60;99.90
17154;DHT22;8692;52.164;7.558;2023-04-25T00:27:43;7.70;99.90
17154;DHT22;8692;52.164;7.558;2023-04-25T00:30:13;7.60;99.90
17154;DHT22;8692;52.164;7.558;2023-04-25T00:32:41;7.60;99.90
17154;DHT22;8692;52.164;7.558;2023-04-25T00:35:10;7.70;99.90
17154;DHT22;8692;52.164;7.558;2023-04-25T00:37:38;7.70;99.90
17154;DHT22;8692;52.164;7.558;2023-04-25T00:40:07;7.70;99.90
17154;DHT22;8692;52.164;7.558;2023-04-25T00:42:37;7.70;99.90
17154;DHT22;8692;52.164;7.558;2023-04-25T00:45:07;7.70;99.90
17154;DHT22;8692;52.164;7.558;2023-04-25T00:47:37;7.70;99.90
17154;DHT22;8692;52.164;7.558;2023-04-25T00:50:07;7.70;99.90
17154;DHT22;8692;52.164;7.558;2023-04-25T00:52:38;7.70;99.90
17154;DHT22;8692;52.164;7.558;2023-04-25T00:55:11;7.70;99.90
17154;DHT22;8692;52.164;7.558;2023-04-25T00:57:42;7.70;99.90
17154;DHT22;8692;52.164;7.558;2023-04-25T01:00:11;7.70;99.90
17154;DHT22;8692;52.164;7.558;2023-04-25T01:02:40;7.70;99.90
17154;DHT22;8692;52.164;7.558;2023-04-25T01:05:12;7.80;99.90
17154;DHT22;8692;52.164;7.558;2023-04-25T01:07:43;7.80;99.90
17154;DHT22;8692;52.164;7.558;2023-04-25T01:10:14;7.80;99.90
17154;DHT22;8692;52.164;7.558;2023-04-25T01:12:44;7.80;99.90
17154;DHT22;8692;52.164;7.558;2023-04-25T01:15:15;7.80;99.90
17154;DHT22;8692;52.164;7.558;2023-04-25T01:17:43;7.80;99.90
17154;DHT22;8692;52.164;7.558;2023-04-25T01:20:12;7.80;99.90
17154;DHT22;8692;52.164;7.558;2023-04-25T01:22:43;7.80;99.90
17154;DHT22;8692;52.164;7.558;2023-04-25T01:25:14;7.80;99.90
17154;DHT22;8692;52.164;7.558;2023-04-25T01:27:43;7.80;99.90
17154;DHT22;8692;52.164;7.558;2023-04-25T01:30:13;7.70;99.90
17154;DHT22;8692;52.164;7.558;2023-04-25T01:32:42;7.70;99.90
17154;DHT22;8692;52.164;7.558;2023-04-25T01:35:14;7.70;99.90
17154;DHT22;8692;52.164;7.558;2023-04-25T01:37:45;7.70;99.90
17154;DHT22;8692;52.164;7.558;2023-04-25T01:40:14;7.70;99.90
17154;DHT22;8692;52.164;7.558;2023-04-25T01:42:43;7.60;99.90
17154;DHT22;8692;52.164;7.558;2023-04-25T01:45:13;7.60;99.90
17154;DHT22;8692;52.164;7.558;2023-04-25T01:47:41;7.60;99.90
17154;DHT22;8692;52.164;7.558;2023-04-25T01:50:11;7.60;99.90
17154;DHT22;8692;52.164;7.558;2023-04-25T01:52:39;7.60;99.90
17154;DHT22;8692;52.164;7.558;2023-04-25T01:55:10;7.60;99.90
17154;DHT22;8692;52.164;7.558;2023-04-25T01:57:48;7.60;99.90
17154;DHT22;8692;52.164;7.558;2023-04-25T02:00:20;7.50;99.90
17154;DHT22;8692;52.164;7.558;2023-04-25T02:02:48;7.50;99.90
17154;DHT22;8692;52.164;7.558;2023-04-25T02:05:28;7.50;99.90
17154;DHT22;8692;52.164;7.558;2023-04-25T02:07:59;7.50;99.90
17154;DHT22;8692;52.164;7.558;2023-04-25T02:10:29;7.50;99.90
17154;DHT22;8692;52.164;7.558;2023-04-25T02:13:16;7.50;99.90
17154;DHT22;8692;52.164;7.558;2023-04-25T02:16:14;7.50;99.90
17154;DHT22;8692;52.164;7.558;2023-04-25T02:18:45;7.50;99.90
17154;DHT22;8692;52.164;7.558;2023-04-25T02:21:16;7.50;99.90
17154;DHT22;8692;52.164;7.558;2023-04-25T02:23:44;7.50;99.90
17154;DHT22;8692;52.164;7.558;2023-04-25T02:26:20;7.40;99.90
17154;DHT22;8692;52.164;7.558;2023-04-25T02:28:51;7.40;99.90
17154;DHT22;8692;52.164;7.558;2023-04-25T02:31:21;7.40;99.90
17154;DHT22;8692;52.164;7.558;2023-04-25T02:33:51;7.50;99.90
17154;DHT22;8692;52.164;7.558;2023-04-25T02:36:20;7.40;99.90
17154;DHT22;8692;52.164;7.558;2023-04-25T02:38:50;7.40;99.90
17154;DHT22;8692;52.164;7.558;2023-04-25T02:41:23;7.40;99.90
17154;DHT22;8692;52.164;7.558;2023-04-25T02:43:54;7.40;99.90
17154;DHT22;8692;52.164;7.558;2023-04-25T02:46:22;7.40;99.90
17154;DHT22;8692;52.164;7.558;2023-04-25T02:49:07;7.40;99.90
17154;DHT22;8692;52.164;7.558;2023-04-25T02:51:36;7.40;99.90
17154;DHT22;8692;52.164;7.558;2023-04-25T02:54:04;7.40;99.90
17154;DHT22;8692;52.164;7.558;2023-04-25T02:56:39;7.30;99.90
17154;DHT22;8692;52.164;7.558;2023-04-25T02:59:12;7.30;99.90
17154;DHT22;8692;52.164;7.558;2023-04-25T03:01:44;7.30;99.90
17154;DHT22;8692;52.164;7.558;2023-04-25T03:04:12;7.30;99.90
17154;DHT22;8692;52.164;7.558;2023-04-25T03:06:44;7.30;99.90
17154;DHT22;8692;52.164;7.558;2023-04-25T03:09:12;7.30;99.90
17154;DHT22;8692;52.164;7.558;2023-04-25T03:11:43;7.30;99.90
17154;DHT22;8692;52.164;7.558;2023-04-25T03:14:12;7.30;99.90
17154;DHT22;8692;52.164;7.558;2023-04-25T03:16:40;7.20;99.90
17154;DHT22;8692;52.164;7.558;2023-04-25T03:19:08;7.20;99.90
17154;DHT22;8692;52.164;7.558;2023-04-25T03:21:37;7.20;99.90
17154;DHT22;8692;52.164;7.558;2023-04-25T03:24:05;7.20;99.90
17154;DHT22;8692;52.164;7.558;2023-04-25T03:26:34;7.20;99.90
17154;DHT22;8692;52.164;7.558;2023-04-25T03:29:04;7.20;99.90
17154;DHT22;8692;52.164;7.558;2023-04-25T03:31:33;7.20;99.90
17154;DHT22;8692;52.164;7.558;2023-04-25T03:34:11;7.20;99.90
17154;DHT22;8692;52.164;7.558;2023-04-25T03:36:44;7.20;99.90
17154;DHT22;8692;52.164;7.558;2023-04-25T03:39:13;7.10;99.90
17154;DHT22;8692;52.164;7.558;2023-04-25T03:41:46;7.10;99.90
17154;DHT22;8692;52.164;7.558;2023-04-25T03:44:19;7.10;99.90
17154;DHT22;8692;52.164;7.558;2023-04-25T03:46:47;7.10;99.90
17154;DHT22;8692;52.164;7.558;2023-04-25T03:49:19;7.10;99.90
17154;DHT22;8692;52.164;7.558;2023-04-25T03:51:57;7.10;99.90
17154;DHT22;8692;52.164;7.558;2023-04-25T03:54:27;7.10;99.90
17154;DHT22;8692;52.164;7.558;2023-04-25T03:57:02;7.10;99.90
17154;DHT22;8692;52.164;7.558;2023-04-25T03:59:35;7.10;99.90
17154;DHT22;8692;52.164;7.558;2023-04-25T04:02:07;7.10;99.90
17154;DHT22;8692;52.164;7.558;2023-04-25T04:04:36;7.00;99.90
17154;DHT22;8692;52.164;7.558;2023-04-25T04:07:05;7.00;99.90
17154;DHT22;8692;52.164;7.558;2023-04-25T04:09:36;7.00;99.90
17154;DHT22;8692;52.164;7.558;2023-04-25T04:12:08;7.00;99.90
17154;DHT22;8692;52.164;7.558;2023-04-25T04:14:41;7.00;99.90
17154;DHT22;8692;52.164;7.558;2023-04-25T04:17:10;7.00;99.90
17154;DHT22;8692;52.164;7.558;2023-04-25T04:19:38;7.00;99.90
17154;DHT22;8692;52.164;7.558;2023-04-25T04:22:18;7.00;99.90
17154;DHT22;8692;52.164;7.558;2023-04-25T04:24:48;7.00;99.90
17154;DHT22;8692;52.164;7.558;2023-04-25T04:27:23;7.00;99.90
17154;DHT22;8692;52.164;7.558;2023-04-25T04:30:08;7.00;99.90
17154;DHT22;8692;52.164;7.558;2023-04-25T04:32:55;7.00;99.90
17154;DHT22;8692;52.164;7.558;2023-04-25T04:35:24;6.90;99.90
17154;DHT22;8692;52.164;7.558;2023-04-25T04:37:55;6.90;99.90
17154;DHT22;8692;52.164;7.558;2023-04-25T04:40:27;7.00;99.90
17154;DHT22;8692;52.164;7.558;2023-04-25T04:43:07;6.90;99.90
17154;DHT22;8692;52.164;7.558;2023-04-25T04:45:40;6.90;99.90
17154;DHT22;8692;52.164;7.558;2023-04-25T04:49:12;6.90;99.90
17154;DHT22;8692;52.164;7.558;2023-04-25T04:52:12;6.90;99.90
17154;DHT22;8692;52.164;7.558;2023-04-25T04:55:17;6.90;99.90
17154;DHT22;8692;52.164;7.558;2023-04-25T04:58:12;6.80;99.90
17154;DHT22;8692;52.164;7.558;2023-04-25T05:01:07;6.80;99.90
17154;DHT22;8692;52.164;7.558;2023-04-25T05:03:54;6.90;99.90
17154;DHT22;8692;52.164;7.558;2023-04-25T05:06:45;6.90;99.90
17154;DHT22;8692;52.164;7.558;2023-04-25T05:09:27;6.90;99.90
17154;DHT22;8692;52.164;7.558;2023-04-25T05:12:18;6.80;99.90
17154;DHT22;8692;52.164;7.558;2023-04-25T05:14:54;6.90;99.90
17154;DHT22;8692;52.164;7.558;2023-04-25T05:17:33;6.80;99.90
17154;DHT22;8692;52.164;7.558;2023-04-25T05:20:21;6.90;99.90
17154;DHT22;8692;52.164;7.558;2023-04-25T05:23:04;6.90;99.90
17154;DHT22;8692;52.164;7.558;2023-04-25T05:25:41;6.90;99.90
17154;DHT22;8692;52.164;7.558;2023-04-25T05:28:18;6.90;99.90
17154;DHT22;8692;52.164;7.558;2023-04-25T05:30:58;6.90;99.90
17154;DHT22;8692;52.164;7.558;2023-04-25T05:33:31;6.90;99.90
17154;DHT22;8692;52.164;7.558;2023-04-25T05:36:02;6.90;99.90
17154;DHT22;8692;52.164;7.558;2023-04-25T05:38:31;6.90;99.90
17154;DHT22;8692;52.164;7.558;2023-04-25T05:41:16;7.00;99.90
17154;DHT22;8692;52.164;7.558;2023-04-25T05:43:53;7.00;99.90
17154;DHT22;8692;52.164;7.558;2023-04-25T05:46:50;6.90;99.90
17154;DHT22;8692;52.164;7.558;2023-04-25T05:49:31;6.90;99.90
17154;DHT22;8692;52.164;7.558;2023-04-25T05:52:09;6.90;99.90
17154;DHT22;8692;52.164;7.558;2023-04-25T05:54:45;7.00;99.90
17154;DHT22;8692;52.164;7.558;2023-04-25T05:57:20;7.00;99.90
17154;DHT22;8692;52.164;7.558;2023-04-25T05:59:49;7.00;99.90
17154;DHT22;8692;52.164;7.558;2023-04-25T06:02:17;7.00;99.90
17154;DHT22;8692;52.164;7.558;2023-04-25T06:04:47;7.00;99.90
17154;DHT22;8692;52.164;7.558;2023-04-25T06:07:16;7.00;99.90
17154;DHT22;8692;52.164;7.558;2023-04-25T06:09:44;7.10;99.90
17154;DHT22;8692;52.164;7.558;2023-04-25T06:12:12;7.10;99.90
17154;DHT22;8692;52.164;7.558;2023-04-25T06:14:42;7.10;99.90
17154;DHT22;8692;52.164;7.558;2023-04-25T06:17:13;7.10;99.90
17154;DHT22;8692;52.164;7.558;2023-04-25T06:19:41;7.10;99.90
17154;DHT22;8692;52.164;7.558;2023-04-25T06:22:11;7.10;99.90
17154;DHT22;8692;52.164;7.558;2023-04-25T06:24:40;7.10;99.90
17154;DHT22;8692;52.164;7.558;2023-04-25T06:27:08;7.10;99.90
17154;DHT22;8692;52.164;7.558;2023-04-25T06:29:39;7.10;99.90
17154;DHT22;8692;52.164;7.558;2023-04-25T06:32:07;7.20;99.90
17154;DHT22;8692;52.164;7.558;2023-04-25T06:34:35;7.20;99.90
17154;DHT22;8692;52.164;7.558;2023-04-25T06:37:05;7.20;99.90
17154;DHT22;8692;52.164;7.558;2023-04-25T06:39:36;7.20;99.90
17154;DHT22;8692;52.164;7.558;2023-04-25T06:42:10;7.20;99.90
17154;DHT22;8692;52.164;7.558;2023-04-25T06:44:49;7.30;99.90
17154;DHT22;8692;52.164;7.558;2023-04-25T06:47:20;7.30;99.90
17154;DHT22;8692;52.164;7.558;2023-04-25T06:49:50;7.30;99.90
17154;DHT22;8692;52.164;7.558;2023-04-25T06:52:19;7.40;99.90
17154;DHT22;8692;52.164;7.558;2023-04-25T06:54:49;7.40;99.90
17154;DHT22;8692;52.164;7.558;2023-04-25T06:57:33;7.50;99.90
17154;DHT22;8692;52.164;7.558;2023-04-25T07:00:21;7.50;99.90
17154;DHT22;8692;52.164;7.558;2023-04-25T07:02:49;7.50;99.90
17154;DHT22;8692;52.164;7.558;2023-04-25T07:05:18;7.50;99.90
17154;DHT22;8692;52.164;7.558;2023-04-25T07:07:49;7.50;99.90
17154;DHT22;8692;52.164;7.558;2023-04-25T07:10:20;7.60;99.90
17154;DHT22;8692;52.164;7.558;2023-04-25T07:12:49;7.60;99.90
17154;DHT22;8692;52.164;7.558;2023-04-25T07:15:19;7.60;99.90
17154;DHT22;8692;52.164;7.558;2023-04-25T07:17:48;7.60;99.90
17154;DHT22;8692;52.164;7.558;2023-04-25T07:20:17;7.60;99.90
17154;DHT22;8692;52.164;7.558;2023-04-25T07:22:47;7.70;99.90
17154;DHT22;8692;52.164;7.558;2023-04-25T07:25:17;7.70;99.90
17154;DHT22;8692;52.164;7.558;2023-04-25T07:27:46;7.70;99.90
17154;DHT22;8692;52.164;7.558;2023-04-25T07:30:20;7.70;99.90
17154;DHT22;8692;52.164;7.558;2023-04-25T07:32:48;7.70;99.90
17154;DHT22;8692;52.164;7.558;2023-04-25T07:35:17;7.80;99.90
17154;DHT22;8692;52.164;7.558;2023-04-25T07:37:46;7.90;99.90
17154;DHT22;8692;52.164;7.558;2023-04-25T07:40:18;7.90;99.90
17154;DHT22;8692;52.164;7.558;2023-04-25T07:42:54;8.00;99.90
17154;DHT22;8692;52.164;7.558;2023-04-25T07:45:30;8.00;99.90
17154;DHT22;8692;52.164;7.558;2023-04-25T07:47:59;8.00;99.90
17154;DHT22;8692;52.164;7.558;2023-04-25T07:50:30;8.10;99.90
17154;DHT22;8692;52.164;7.558;2023-04-25T07:52:58;8.10;99.90
17154;DHT22;8692;52.164;7.558;2023-04-25T07:55:32;8.10;99.90
17154;DHT22;8692;52.164;7.558;2023-04-25T07:58:12;8.10;99.90
17154;DHT22;8692;52.164;7.558;2023-04-25T08:00:44;8.20;99.90
17154;DHT22;8692;52.164;7.558;2023-04-25T08:03:25;8.30;99.90
17154;DHT22;8692;52.164;7.558;2023-04-25T08:05:55;8.30;99.90
17154;DHT22;8692;52.164;7.558;2023-04-25T08:08:25;8.30;99.90
17154;DHT22;8692;52.164;7.558;2023-04-25T08:10:54;8.40;99.90
17154;DHT22;8692;52.164;7.558;2023-04-25T08:13:24;8.40;99.90
17154;DHT22;8692;52.164;7.558;2023-04-25T08:15:52;8.50;99.90
17154;DHT22;8692;52.164;7.558;2023-04-25T08:18:21;8.60;99.90
17154;DHT22;8692;52.164;7.558;2023-04-25T08:20:50;8.60;99.90
17154;DHT22;8692;52.164;7.558;2023-04-25T08:23:20;8.60;99.90
17154;DHT22;8692;52.164;7.558;2023-04-25T08:25:58;8.70;99.90
17154;DHT22;8692;52.164;7.558;2023-04-25T08:28:29;8.80;99.90
17154;DHT22;8692;52.164;7.558;2023-04-25T08:31:01;8.80;99.90
17154;DHT22;8692;52.164;7.558;2023-04-25T08:33:37;9.00;99.90
17154;DHT22;8692;52.164;7.558;2023-04-25T08:36:14;9.00;99.90
17154;DHT22;8692;52.164;7.558;2023-04-25T08:39:01;9.00;99.90
17154;DHT22;8692;52.164;7.558;2023-04-25T08:41:30;9.10;99.90
17154;DHT22;8692;52.164;7.558;2023-04-25T08:44:01;9.00;99.90
17154;DHT22;8692;52.164;7.558;2023-04-25T08:46:31;9.00;99.90
17154;DHT22;8692;52.164;7.558;2023-04-25T08:49:09;9.00;99.90
17154;DHT22;8692;52.164;7.558;2023-04-25T08:51:44;9.10;99.90
17154;DHT22;8692;52.164;7.558;2023-04-25T08:54:18;9.10;99.90
17154;DHT22;8692;52.164;7.558;2023-04-25T08:57:11;9.20;99.90
17154;DHT22;8692;52.164;7.558;2023-04-25T08:59:41;9.20;99.90
17154;DHT22;8692;52.164;7.558;2023-04-25T09:02:12;9.30;99.90
17154;DHT22;8692;52.164;7.558;2023-04-25T09:04:46;9.40;99.80
17154;DHT22;8692;52.164;7.558;2023-04-25T09:07:14;9.50;97.00
17154;DHT22;8692;52.164;7.558;2023-04-25T09:09:45;9.60;97.00
17154;DHT22;8692;52.164;7.558;2023-04-25T09:12:18;9.70;96.60
17154;DHT22;8692;52.164;7.558;2023-04-25T09:15:03;9.80;97.40
17154;DHT22;8692;52.164;7.558;2023-04-25T09:17:55;9.80;93.50
17154;DHT22;8692;52.164;7.558;2023-04-25T09:20:27;9.90;93.10
17154;DHT22;8692;52.164;7.558;2023-04-25T09:23:04;10.00;92.60
17154;DHT22;8692;52.164;7.558;2023-04-25T09:25:37;10.00;89.50
17154;DHT22;8692;52.164;7.558;2023-04-25T09:28:09;10.00;90.00
17154;DHT22;8692;52.164;7.558;2023-04-25T09:30:42;10.10;91.30
17154;DHT22;8692;52.164;7.558;2023-04-25T09:33:17;10.10;92.20
17154;DHT22;8692;52.164;7.558;2023-04-25T09:35:48;10.10;92.80
17154;DHT22;8692;52.164;7.558;2023-04-25T09:38:41;10.20;96.70
17154;DHT22;8692;52.164;7.558;2023-04-25T09:41:22;10.30;92.80
17154;DHT22;8692;52.164;7.558;2023-04-25T09:43:56;10.30;90.30
17154;DHT22;8692;52.164;7.558;2023-04-25T09:46:34;10.30;94.40
17154;DHT22;8692;52.164;7.558;2023-04-25T09:49:08;10.30;90.30
17154;DHT22;8692;52.164;7.558;2023-04-25T09:51:55;10.30;91.60
17154;DHT22;8692;52.164;7.558;2023-04-25T09:54:28;10.20;90.90
17154;DHT22;8692;52.164;7.558;2023-04-25T09:57:11;10.30;94.00
17154;DHT22;8692;52.164;7.558;2023-04-25T09:59:43;10.30;96.20
17154;DHT22;8692;52.164;7.558;2023-04-25T10:02:14;10.30;94.40
17154;DHT22;8692;52.164;7.558;2023-04-25T10:04:46;10.30;94.00
17154;DHT22;8692;52.164;7.558;2023-04-25T10:07:21;10.20;92.90
17154;DHT22;8692;52.164;7.558;2023-04-25T10:09:55;10.10;92.80
17154;DHT22;8692;52.164;7.558;2023-04-25T10:12:26;10.10;93.50
17154;DHT22;8692;52.164;7.558;2023-04-25T10:14:55;10.00;95.60
17154;DHT22;8692;52.164;7.558;2023-04-25T10:17:27;9.90;93.80
17154;DHT22;8692;52.164;7.558;2023-04-25T10:19:56;9.90;97.10
17154;DHT22;8692;52.164;7.558;2023-04-25T10:22:31;9.80;97.90
17154;DHT22;8692;52.164;7.558;2023-04-25T10:25:03;9.70;99.60
17154;DHT22;8692;52.164;7.558;2023-04-25T10:27:34;9.70;99.90
17154;DHT22;8692;52.164;7.558;2023-04-25T10:30:03;9.60;99.70
17154;DHT22;8692;52.164;7.558;2023-04-25T10:32:35;9.60;96.30
17154;DHT22;8692;52.164;7.558;2023-04-25T10:35:10;9.50;97.90
17154;DHT22;8692;52.164;7.558;2023-04-25T10:37:56;9.50;98.80
17154;DHT22;8692;52.164;7.558;2023-04-25T10:40:27;9.50;96.20
17154;DHT22;8692;52.164;7.558;2023-04-25T10:42:55;9.50;97.30
17154;DHT22;8692;52.164;7.558;2023-04-25T10:45:53;9.50;97.80
17154;DHT22;8692;52.164;7.558;2023-04-25T10:48:29;9.50;95.50
17154;DHT22;8692;52.164;7.558;2023-04-25T10:51:07;9.60;98.70
17154;DHT22;8692;52.164;7.558;2023-04-25T10:53:36;9.60;99.50
17154;DHT22;8692;52.164;7.558;2023-04-25T10:56:10;9.60;99.50
17154;DHT22;8692;52.164;7.558;2023-04-25T10:58:43;9.60;98.80
17154;DHT22;8692;52.164;7.558;2023-04-25T11:01:12;9.60;99.90
17154;DHT22;8692;52.164;7.558;2023-04-25T11:03:45;9.60;98.60
17154;DHT22;8692;52.164;7.558;2023-04-25T11:06:23;9.50;98.70
17154;DHT22;8692;52.164;7.558;2023-04-25T11:08:51;9.50;99.90
17154;DHT22;8692;52.164;7.558;2023-04-25T11:11:20;9.40;97.90
17154;DHT22;8692;52.164;7.558;2023-04-25T11:13:48;9.40;99.90
17154;DHT22;8692;52.164;7.558;2023-04-25T11:16:19;9.40;99.70
17154;DHT22;8692;52.164;7.558;2023-04-25T11:18:58;9.50;99.40
17154;DHT22;8692;52.164;7.558;2023-04-25T11:21:29;9.50;99.40
17154;DHT22;8692;52.164;7.558;2023-04-25T11:24:00;9.50;99.90
17154;DHT22;8692;52.164;7.558;2023-04-25T11:26:31;9.70;97.30
17154;DHT22;8692;52.164;7.558;2023-04-25T11:28:59;9.70;94.70
17154;DHT22;8692;52.164;7.558;2023-04-25T11:31:29;9.80;97.50
17154;DHT22;8692;52.164;7.558;2023-04-25T11:33:59;9.90;95.30
17154;DHT22;8692;52.164;7.558;2023-04-25T11:36:27;10.00;98.00
17154;DHT22;8692;52.164;7.558;2023-04-25T11:38:57;10.20;96.20
17154;DHT22;8692;52.164;7.558;2023-04-25T11:41:26;10.30;92.40
17154;DHT22;8692;52.164;7.558;2023-04-25T11:43:54;10.40;92.10
17154;DHT22;8692;52.164;7.558;2023-04-25T11:46:22;10.50;90.60
17154;DHT22;8692;52.164;7.558;2023-04-25T11:48:51;10.50;91.20
17154;DHT22;8692;52.164;7.558;2023-04-25T11:51:23;10.60;91.40
17154;DHT22;8692;52.164;7.558;2023-04-25T11:53:52;10.80;90.30
17154;DHT22;8692;52.164;7.558;2023-04-25T11:56:20;10.90;91.10
17154;DHT22;8692;52.164;7.558;2023-04-25T11:58:55;11.00;92.10
17154;DHT22;8692;52.164;7.558;2023-04-25T12:01:28;11.10;92.90
17154;DHT22;8692;52.164;7.558;2023-04-25T12:04:11;11.20;93.20
17154;DHT22;8692;52.164;7.558;2023-04-25T12:06:45;11.50;92.90
17154;DHT22;8692;52.164;7.558;2023-04-25T12:09:16;11.60;92.20
17154;DHT22;8692;52.164;7.558;2023-04-25T12:11:47;11.80;90.90
17154;DHT22;8692;52.164;7.558;2023-04-25T12:14:22;11.90;85.30
17154;DHT22;8692;52.164;7.558;2023-04-25T12:16:51;11.90;85.90
17154;DHT22;8692;52.164;7.558;2023-04-25T12:19:20;11.90;85.00
17154;DHT22;8692;52.164;7.558;2023-04-25T12:21:50;12.00;87.10
17154;DHT22;8692;52.164;7.558;2023-04-25T12:24:25;12.00;86.80
17154;DHT22;8692;52.164;7.558;2023-04-25T12:26:59;11.90;87.10
17154;DHT22;8692;52.164;7.558;2023-04-25T12:29:29;11.60;88.70
17154;DHT22;8692;52.164;7.558;2023-04-25T12:32:16;11.40;92.50
17154;DHT22;8692;52.164;7.558;2023-04-25T12:34:47;11.40;92.50
17154;DHT22;8692;52.164;7.558;2023-04-25T12:37:16;11.40;93.90
17154;DHT22;8692;52.164;7.558;2023-04-25T12:39:44;11.40;92.80
17154;DHT22;8692;52.164;7.558;2023-04-25T12:42:13;11.40;92.50
17154;DHT22;8692;52.164;7.558;2023-04-25T12:44:41;11.40;93.10
17154;DHT22;8692;52.164;7.558;2023-04-25T12:47:09;11.40;94.30
17154;DHT22;8692;52.164;7.558;2023-04-25T12:49:37;11.50;93.70
17154;DHT22;8692;52.164;7.558;2023-04-25T12:52:07;11.60;92.40
17154;DHT22;8692;52.164;7.558;2023-04-25T12:54:39;11.70;92.10
17154;DHT22;8692;52.164;7.558;2023-04-25T12:57:11;11.70;93.40
17154;DHT22;8692;52.164;7.558;2023-04-25T12:59:40;11.60;93.10
17154;DHT22;8692;52.164;7.558;2023-04-25T13:02:08;11.30;94.80
17154;DHT22;8692;52.164;7.558;2023-04-25T13:04:36;11.10;98.40
17154;DHT22;8692;52.164;7.558;2023-04-25T13:07:06;10.90;99.90
17154;DHT22;8692;52.164;7.558;2023-04-25T13:09:35;10.80;99.90
17154;DHT22;8692;52.164;7.558;2023-04-25T13:12:04;10.60;99.90
17154;DHT22;8692;52.164;7.558;2023-04-25T13:14:33;10.60;99.90
17154;DHT22;8692;52.164;7.558;2023-04-25T13:17:01;10.50;99.90
17154;DHT22;8692;52.164;7.558;2023-04-25T13:19:29;10.50;99.90
17154;DHT22;8692;52.164;7.558;2023-04-25T13:21:59;10.50;99.90
17154;DHT22;8692;52.164;7.558;2023-04-25T13:24:27;10.50;99.90
17154;DHT22;8692;52.164;7.558;2023-04-25T13:26:56;10.50;99.90
17154;DHT22;8692;52.164;7.558;2023-04-25T13:29:25;10.50;99.90
17154;DHT22;8692;52.164;7.558;2023-04-25T13:31:53;10.50;99.90
17154;DHT22;8692;52.164;7.558;2023-04-25T13:34:24;10.60;99.90
17154;DHT22;8692;52.164;7.558;2023-04-25T13:36:52;10.60;99.90
17154;DHT22;8692;52.164;7.558;2023-04-25T13:39:20;10.60;99.90
17154;DHT22;8692;52.164;7.558;2023-04-25T13:41:48;10.70;99.90
17154;DHT22;8692;52.164;7.558;2023-04-25T13:44:16;10.80;99.90
17154;DHT22;8692;52.164;7.558;2023-04-25T13:46:46;10.90;99.90
17154;DHT22;8692;52.164;7.558;2023-04-25T13:49:14;11.10;99.90
17154;DHT22;8692;52.164;7.558;2023-04-25T13:51:42;11.20;99.90
17154;DHT22;8692;52.164;7.558;2023-04-25T13:54:14;11.30;99.90
17154;DHT22;8692;52.164;7.558;2023-04-25T13:56:42;11.40;99.90
17154;DHT22;8692;52.164;7.558;2023-04-25T13:59:10;11.50;99.90
17154;DHT22;8692;52.164;7.558;2023-04-25T14:01:41;11.60;99.90
17154;DHT22;8692;52.164;7.558;2023-04-25T14:04:13;11.70;99.60
17154;DHT22;8692;52.164;7.558;2023-04-25T14:06:41;11.90;98.10
17154;DHT22;8692;52.164;7.558;2023-04-25T14:09:11;12.00;97.50
17154;DHT22;8692;52.164;7.558;2023-04-25T14:11:40;12.20;95.00
17154;DHT22;8692;52.164;7.558;2023-04-25T14:14:08;12.30;95.60
17154;DHT22;8692;52.164;7.558;2023-04-25T14:16:36;12.40;95.20
17154;DHT22;8692;52.164;7.558;2023-04-25T14:19:07;12.60;91.90
17154;DHT22;8692;52.164;7.558;2023-04-25T14:21:36;12.70;88.50
17154;DHT22;8692;52.164;7.558;2023-04-25T14:24:07;12.80;80.50
17154;DHT22;8692;52.164;7.558;2023-04-25T14:26:38;12.80;84.50
17154;DHT22;8692;52.164;7.558;2023-04-25T14:29:09;12.70;89.40
17154;DHT22;8692;52.164;7.558;2023-04-25T14:31:39;12.60;91.20
17154;DHT22;8692;52.164;7.558;2023-04-25T14:34:08;12.40;90.40
17154;DHT22;8692;52.164;7.558;2023-04-25T14:36:39;12.10;91.30
17154;DHT22;8692;52.164;7.558;2023-04-25T14:39:08;11.90;92.40
17154;DHT22;8692;52.164;7.558;2023-04-25T14:41:36;11.70;93.10
17154;DHT22;8692;52.164;7.558;2023-04-25T14:44:05;11.60;90.50
17154;DHT22;8692;52.164;7.558;2023-04-25T14:46:33;11.60;87.60
17154;DHT22;8692;52.164;7.558;2023-04-25T14:49:01;11.50;88.80
17154;DHT22;8692;52.164;7.558;2023-04-25T14:51:33;11.40;90.30
17154;DHT22;8692;52.164;7.558;2023-04-25T14:54:03;11.40;92.10
17154;DHT22;8692;52.164;7.558;2023-04-25T14:56:34;11.30;93.10
17154;DHT22;8692;52.164;7.558;2023-04-25T14:59:02;11.20;92.60
17154;DHT22;8692;52.164;7.558;2023-04-25T15:01:31;11.00;96.50
17154;DHT22;8692;52.164;7.558;2023-04-25T15:04:02;10.90;97.40
17154;DHT22;8692;52.164;7.558;2023-04-25T15:06:30;10.90;98.70
17154;DHT22;8692;52.164;7.558;2023-04-25T15:09:02;10.80;97.70
17154;DHT22;8692;52.164;7.558;2023-04-25T15:11:33;10.80;99.00
17154;DHT22;8692;52.164;7.558;2023-04-25T15:14:04;10.80;97.50
17154;DHT22;8692;52.164;7.558;2023-04-25T15:16:32;10.80;97.00
17154;DHT22;8692;52.164;7.558;2023-04-25T15:19:03;10.80;97.20
17154;DHT22;8692;52.164;7.558;2023-04-25T15:21:34;10.70;97.10
17154;DHT22;8692;52.164;7.558;2023-04-25T15:24:04;10.80;98.40
17154;DHT22;8692;52.164;7.558;2023-04-25T15:26:33;11.00;96.20
17154;DHT22;8692;52.164;7.558;2023-04-25T15:29:01;11.10;92.40
17154;DHT22;8692;52.164;7.558;2023-04-25T15:31:32;11.20;85.60
17154;DHT22;8692;52.164;7.558;2023-04-25T15:34:00;11.20;87.60
17154;DHT22;8692;52.164;7.558;2023-04-25T15:36:31;11.30;87.30
17154;DHT22;8692;52.164;7.558;2023-04-25T15:38:59;11.40;85.50
17154;DHT22;8692;52.164;7.558;2023-04-25T15:41:30;11.40;88.20
17154;DHT22;8692;52.164;7.558;2023-04-25T15:43:59;11.50;88.00
17154;DHT22;8692;52.164;7.558;2023-04-25T15:46:28;11.60;88.00
17154;DHT22;8692;52.164;7.558;2023-04-25T15:48:57;11.60;89.80
17154;DHT22;8692;52.164;7.558;2023-04-25T15:51:26;11.80;88.60
17154;DHT22;8692;52.164;7.558;2023-04-25T15:53:56;11.90;87.50
17154;DHT22;8692;52.164;7.558;2023-04-25T15:56:27;11.90;85.90
17154;DHT22;8692;52.164;7.558;2023-04-25T15:58:56;11.80;85.00
17154;DHT22;8692;52.164;7.558;2023-04-25T16:01:24;11.70;85.90
17154;DHT22;8692;52.164;7.558;2023-04-25T16:03:56;11.60;85.40
17154;DHT22;8692;52.164;7.558;2023-04-25T16:06:28;11.50;85.20
17154;DHT22;8692;52.164;7.558;2023-04-25T16:08:58;11.30;85.70
17154;DHT22;8692;52.164;7.558;2023-04-25T16:11:26;11.20;84.30
17154;DHT22;8692;52.164;7.558;2023-04-25T16:13:57;11.20;84.60
17154;DHT22;8692;52.164;7.558;2023-04-25T16:16:25;11.10;82.80
17154;DHT22;8692;52.164;7.558;2023-04-25T16:18:56;11.00;84.30
17154;DHT22;8692;52.164;7.558;2023-04-25T16:21:26;10.90;83.40
17154;DHT22;8692;52.164;7.558;2023-04-25T16:23:56;10.90;84.20
17154;DHT22;8692;52.164;7.558;2023-04-25T16:26:27;10.90;83.80
17154;DHT22;8692;52.164;7.558;2023-04-25T16:29:01;10.80;84.20